createdAt,value
2023-04-18T00:00:30.816Z,57.18
2023-04-18T00:01:30.822Z,58.28
2023-04-18T00:02:30.929Z,58.22
2023-04-18T00:03:30.994Z,59.74
2023-04-18T00:04:30.939Z,58.21
2023-04-18T00:05:30.934Z,60.79
2023-04-18T00:06:30.950Z,56.95
2023-04-18T00:07:30.975Z,58.46
2023-04-18T00:08:31.027Z,59.52
2023-04-18T00:09:31.128Z,58.97
2023-04-18T00:10:31.099Z,58.96
2023-04-18T00:11:31.143Z,58.68
2023-04-18T00:12:31.150Z,58.50
2023-04-18T00:13:31.255Z,58.76
2023-04-18T00:14:31.265Z,60.48
2023-04-18T00:15:31.242Z,58.90
2023-04-18T00:16:31.318Z,59.60
2023-04-18T00:17:31.325Z,59.47
2023-04-18T00:18:31.374Z,57.58
2023-04-18T00:19:31.437Z,57.99
2023-04-18T00:20:31.429Z,60.05
2023-04-18T00:21:31.596Z,60.51
2023-04-18T00:22:31.495Z,58.00
2023-04-18T00:23:31.537Z,58.05
2023-04-18T00:24:31.626Z,57.69
2023-04-18T00:25:31.613Z,55.92
2023-04-18T00:26:31.624Z,55.95
2023-04-18T00:27:31.720Z,56.04
2023-04-18T00:28:31.718Z,54.44
2023-04-18T00:29:31.758Z,55.97
2023-04-18T00:30:31.822Z,57.73
2023-04-18T00:31:31.853Z,57.66
2023-04-18T00:32:31.880Z,56.00
2023-04-18T00:33:31.893Z,55.94
2023-04-18T00:34:31.933Z,57.83
2023-04-18T00:35:31.970Z,60.70
2023-04-18T00:36:32.021Z,60.61
2023-04-18T00:37:32.013Z,62.55
2023-04-18T00:38:32.062Z,62.88
2023-04-18T00:39:32.108Z,64.73
2023-04-18T00:40:32.127Z,66.42
2023-04-18T00:41:32.161Z,68.20
2023-04-18T00:42:32.243Z,67.94
2023-04-18T00:43:32.254Z,69.62
2023-04-18T00:44:32.293Z,71.57
2023-04-18T00:45:32.301Z,72.85
2023-04-18T00:46:32.325Z,72.84
2023-04-18T00:47:32.351Z,73.05
2023-04-18T00:48:32.404Z,74.13
2023-04-18T00:49:32.435Z,75.84
2023-04-18T00:50:32.485Z,75.18
2023-04-18T00:51:32.498Z,75.66
2023-04-18T00:52:32.556Z,77.40
2023-04-18T00:53:32.547Z,78.42
2023-04-18T00:54:32.615Z,77.77
2023-04-18T00:55:32.647Z,78.94
2023-04-18T00:56:32.684Z,76.78
2023-04-18T00:57:32.713Z,77.57
2023-04-18T00:58:32.753Z,77.99
2023-04-18T00:59:32.768Z,78.20
2023-04-18T01:00:32.810Z,78.71
2023-04-18T01:01:32.863Z,78.30
2023-04-18T01:02:33.000Z,80.12
2023-04-18T01:03:33.105Z,78.77
2023-04-18T01:04:33.099Z,78.50
2023-04-18T01:05:32.953Z,78.81
2023-04-18T01:06:32.995Z,79.47
2023-04-18T01:07:33.012Z,77.81
2023-04-18T01:08:33.045Z,76.72
2023-04-18T01:09:33.129Z,77.11
2023-04-18T01:10:33.125Z,76.99
2023-04-18T01:11:33.167Z,73.76
2023-04-18T01:12:33.163Z,73.20
2023-04-18T01:13:33.219Z,71.52
2023-04-18T01:14:33.246Z,70.37
2023-04-18T01:15:33.313Z,68.66
2023-04-18T01:16:33.328Z,67.26
2023-04-18T01:17:33.365Z,68.40
2023-04-18T01:18:33.358Z,67.39
2023-04-18T01:19:33.378Z,67.08
2023-04-18T01:20:33.453Z,66.71
2023-04-18T01:21:33.465Z,66.73
2023-04-18T01:22:33.513Z,67.10
2023-04-18T01:23:33.526Z,66.30
2023-04-18T01:24:33.576Z,66.39
2023-04-18T01:25:33.584Z,67.26
2023-04-18T01:26:33.647Z,65.97
2023-04-18T01:27:33.688Z,65.31
2023-04-18T01:28:33.793Z,63.74
2023-04-18T01:29:33.756Z,64.03
2023-04-18T01:30:33.782Z,62.47
2023-04-18T01:31:33.821Z,61.41
2023-04-18T01:32:33.859Z,62.79
2023-04-18T01:33:33.891Z,62.13
2023-04-18T01:34:33.933Z,59.69
2023-04-18T01:35:33.952Z,60.31
2023-04-18T01:36:34.037Z,58.53
2023-04-18T01:37:34.045Z,58.80
2023-04-18T01:38:34.060Z,58.73
2023-04-18T01:39:34.093Z,59.27
2023-04-18T01:40:34.107Z,59.67
2023-04-18T01:41:34.159Z,60.93
2023-04-18T01:42:34.208Z,58.62
2023-04-18T01:43:34.228Z,58.49
2023-04-18T01:44:34.268Z,58.79
2023-04-18T01:45:34.312Z,58.21
2023-04-18T01:46:34.391Z,58.17
2023-04-18T01:47:34.424Z,56.14
2023-04-18T01:48:34.416Z,56.20
2023-04-18T01:49:34.440Z,54.72
2023-04-18T01:50:34.484Z,53.35
2023-04-18T01:51:34.496Z,52.59
2023-04-18T01:52:34.539Z,50.77
2023-04-18T01:53:34.567Z,49.36
2023-04-18T01:54:34.584Z,48.55
2023-04-18T01:55:34.613Z,47.03
2023-04-18T01:56:34.664Z,46.15
2023-04-18T01:57:34.691Z,45.45
2023-04-18T01:58:34.746Z,44.53
2023-04-18T01:59:34.785Z,44.07
2023-04-18T02:00:34.875Z,44.18
2023-04-18T02:01:34.863Z,42.93
2023-04-18T02:02:35.047Z,41.85
2023-04-18T02:03:35.133Z,41.40
2023-04-18T02:04:35.016Z,41.42
2023-04-18T02:05:35.047Z,40.60
2023-04-18T02:06:35.083Z,42.41
2023-04-18T02:07:35.115Z,41.65
2023-04-18T02:08:35.182Z,41.98
2023-04-18T02:09:35.267Z,43.83
2023-04-18T02:10:35.267Z,42.72
2023-04-18T02:11:35.306Z,39.25
2023-04-18T02:12:35.376Z,38.97
2023-04-18T02:13:35.422Z,39.43
2023-04-18T02:14:35.501Z,38.57
2023-04-18T02:15:35.523Z,40.36
2023-04-18T02:16:35.632Z,36.90
2023-04-18T02:17:35.673Z,39.86
2023-04-18T02:18:35.667Z,38.23
2023-04-18T02:19:35.750Z,35.58
2023-04-18T02:20:35.749Z,35.25
2023-04-18T02:21:35.793Z,37.43
2023-04-18T02:22:35.850Z,33.95
2023-04-18T02:23:35.924Z,33.78
2023-04-18T02:24:35.984Z,32.34
2023-04-18T02:25:36.025Z,29.57
2023-04-18T02:26:36.065Z,31.54
2023-04-18T02:27:36.108Z,29.23
2023-04-18T02:28:36.173Z,29.23
2023-04-18T02:29:36.206Z,30.14
2023-04-18T02:30:36.255Z,29.33
2023-04-18T02:31:36.327Z,28.25
2023-04-18T02:32:36.373Z,28.70
2023-04-18T02:33:36.384Z,29.09
2023-04-18T02:34:36.461Z,28.76
2023-04-18T02:35:36.517Z,29.82
2023-04-18T02:36:36.566Z,31.28
2023-04-18T02:37:36.661Z,31.57
2023-04-18T02:38:36.685Z,30.21
2023-04-18T02:39:36.726Z,32.28
2023-04-18T02:40:36.775Z,33.04
2023-04-18T02:41:36.794Z,33.28
2023-04-18T02:42:36.879Z,33.33
2023-04-18T02:43:36.916Z,33.84
2023-04-18T02:44:36.985Z,36.32
2023-04-18T02:45:37.036Z,36.83
2023-04-18T02:46:37.095Z,36.33
2023-04-18T02:47:47.057Z,37.17
2023-04-18T02:48:38.124Z,37.30
2023-04-18T02:49:37.107Z,37.55
2023-04-18T02:50:37.116Z,38.26
2023-04-18T02:51:37.112Z,38.96
2023-04-18T02:52:37.128Z,41.95
2023-04-18T02:53:37.165Z,38.96
2023-04-18T02:54:37.101Z,40.07
2023-04-18T02:55:37.097Z,41.08
2023-04-18T02:56:37.038Z,39.22
2023-04-18T02:57:37.104Z,39.76
2023-04-18T02:58:37.160Z,39.90
2023-04-18T02:59:37.239Z,38.78
2023-04-18T03:00:37.304Z,39.12
2023-04-18T03:01:37.454Z,40.24
2023-04-18T03:02:37.475Z,39.58
2023-04-18T03:03:37.456Z,36.32
2023-04-18T03:04:37.492Z,36.19
2023-04-18T03:05:37.577Z,37.79
2023-04-18T03:06:37.609Z,35.12
2023-04-18T03:07:37.653Z,37.11
2023-04-18T03:08:37.716Z,36.92
2023-04-18T03:09:37.883Z,35.27
2023-04-18T03:10:37.859Z,35.93
2023-04-18T03:11:37.889Z,38.85
2023-04-18T03:12:37.989Z,36.55
2023-04-18T03:13:38.010Z,37.63
2023-04-18T03:14:38.082Z,38.90
2023-04-18T03:15:38.157Z,40.64
2023-04-18T03:16:38.211Z,41.22
2023-04-18T03:17:38.309Z,42.26
2023-04-18T03:18:38.351Z,41.27
2023-04-18T03:19:38.425Z,42.07
2023-04-18T03:20:38.495Z,41.96
2023-04-18T03:21:38.564Z,42.50
2023-04-18T03:22:38.609Z,40.27
2023-04-18T03:23:38.651Z,38.30
2023-04-18T03:24:38.763Z,36.54
2023-04-18T03:25:38.793Z,35.58
2023-04-18T03:26:38.842Z,36.70
2023-04-18T03:27:38.912Z,38.46
2023-04-18T03:28:38.976Z,38.75
2023-04-18T03:29:39.063Z,40.92
2023-04-18T03:30:39.092Z,40.06
2023-04-18T03:31:39.218Z,38.85
2023-04-18T03:32:39.282Z,40.23
2023-04-18T03:33:39.294Z,39.87
2023-04-18T03:34:39.355Z,41.34
2023-04-18T03:35:39.384Z,42.27
2023-04-18T03:36:39.449Z,42.59
2023-04-18T03:37:39.499Z,43.12
2023-04-18T03:38:39.579Z,43.64
2023-04-18T03:39:39.582Z,45.02
2023-04-18T03:40:39.648Z,46.61
2023-04-18T03:41:39.700Z,45.23
2023-04-18T03:42:39.796Z,45.69
2023-04-18T03:43:39.812Z,46.05
2023-04-18T03:44:39.832Z,43.84
2023-04-18T03:45:39.866Z,45.02
2023-04-18T03:46:39.985Z,43.72
2023-04-18T03:47:40.047Z,44.71
2023-04-18T03:48:40.114Z,44.87
2023-04-18T03:49:40.159Z,46.83
2023-04-18T03:50:40.269Z,45.47
2023-04-18T03:51:40.294Z,44.32
2023-04-18T03:52:40.389Z,45.03
2023-04-18T03:53:40.460Z,46.25
2023-04-18T03:54:40.523Z,44.88
2023-04-18T03:55:40.573Z,45.85
2023-04-18T03:56:40.582Z,46.40
2023-04-18T03:57:41.394Z,46.08
2023-04-18T03:58:40.690Z,48.00
2023-04-18T03:59:40.706Z,48.33
2023-04-18T04:00:40.764Z,48.09
2023-04-18T04:01:40.862Z,49.39
2023-04-18T04:02:41.047Z,49.78
2023-04-18T04:03:41.134Z,51.94
2023-04-18T04:04:41.094Z,52.79
2023-04-18T04:05:40.963Z,53.19
2023-04-18T04:06:41.003Z,53.11
2023-04-18T04:07:41.009Z,53.05
2023-04-18T04:08:41.019Z,55.55
2023-04-18T04:09:41.036Z,54.96
2023-04-18T04:10:41.072Z,56.37
2023-04-18T04:11:41.106Z,59.29
2023-04-18T04:12:41.110Z,58.77
2023-04-18T04:13:41.176Z,60.13
2023-04-18T04:14:41.285Z,57.89
2023-04-18T04:15:41.318Z,59.94
2023-04-18T04:16:41.405Z,60.87
2023-04-18T04:17:41.369Z,65.06
2023-04-18T04:18:41.393Z,62.99
2023-04-18T04:19:41.406Z,62.92
2023-04-18T04:20:41.413Z,65.86
2023-04-18T04:21:41.423Z,68.59
2023-04-18T04:22:41.509Z,65.40
2023-04-18T04:23:41.572Z,67.29
2023-04-18T04:24:41.608Z,68.30
2023-04-18T04:25:41.586Z,67.40
2023-04-18T04:26:41.570Z,67.13
2023-04-18T04:27:41.601Z,71.22
2023-04-18T04:28:41.560Z,70.30
2023-04-18T04:29:41.641Z,70.09
2023-04-18T04:30:41.693Z,68.33
2023-04-18T04:31:41.660Z,68.47
2023-04-18T04:32:41.652Z,71.24
2023-04-18T04:33:41.650Z,69.32
2023-04-18T04:34:41.695Z,69.82
2023-04-18T04:35:41.694Z,71.91
2023-04-18T04:36:41.729Z,72.30
2023-04-18T04:37:41.732Z,72.23
2023-04-18T04:38:41.723Z,73.89
2023-04-18T04:39:41.715Z,73.91
2023-04-18T04:40:41.694Z,73.04
2023-04-18T04:41:41.753Z,74.64
2023-04-18T04:42:41.867Z,75.03
2023-04-18T04:43:41.879Z,76.79
2023-04-18T04:44:41.919Z,77.42
2023-04-18T04:45:41.940Z,78.10
2023-04-18T04:46:41.852Z,80.35
2023-04-18T04:47:41.884Z,82.75
2023-04-18T04:48:41.937Z,83.97
2023-04-18T04:49:41.981Z,85.22
2023-04-18T04:50:41.988Z,88.39
2023-04-18T04:51:42.032Z,90.40
2023-04-18T04:52:42.095Z,93.35
2023-04-18T04:53:42.172Z,101.02
2023-04-18T04:54:42.208Z,100.63
2023-04-18T04:55:42.256Z,104.92
2023-04-18T04:56:42.328Z,106.04
2023-04-18T04:57:42.394Z,107.48
2023-04-18T04:58:42.456Z,111.10
2023-04-18T04:59:42.504Z,113.74
2023-04-18T05:00:42.558Z,119.00
2023-04-18T05:01:42.631Z,122.58
2023-04-18T05:02:42.805Z,125.15
2023-04-18T05:03:42.945Z,128.07
2023-04-18T05:04:42.944Z,127.87
2023-04-18T05:05:42.826Z,132.97
2023-04-18T05:06:42.901Z,133.27
2023-04-18T05:07:42.963Z,132.45
2023-04-18T05:08:43.007Z,135.95
2023-04-18T05:09:43.105Z,137.81
2023-04-18T05:10:43.134Z,140.99
2023-04-18T05:11:43.166Z,141.30
2023-04-18T05:12:43.274Z,142.65
2023-04-18T05:13:43.305Z,142.99
2023-04-18T05:14:43.400Z,143.72
2023-04-18T05:15:43.453Z,147.16
2023-04-18T05:16:43.487Z,146.37
2023-04-18T05:17:43.566Z,149.60
2023-04-18T05:18:43.578Z,149.41
2023-04-18T05:19:43.635Z,150.12
2023-04-18T05:20:43.678Z,150.94
2023-04-18T05:21:43.712Z,151.15
2023-04-18T05:22:43.751Z,149.46
2023-04-18T05:23:43.777Z,153.49
2023-04-18T05:24:43.861Z,155.37
2023-04-18T05:25:43.895Z,157.18
2023-04-18T05:26:43.891Z,157.74
2023-04-18T05:27:43.961Z,157.74
2023-04-18T05:28:44.068Z,157.56
2023-04-18T05:29:44.113Z,158.95
2023-04-18T05:30:44.088Z,157.63
2023-04-18T05:31:44.093Z,157.18
2023-04-18T05:32:44.208Z,158.81
2023-04-18T05:33:44.224Z,160.42
2023-04-18T05:34:44.241Z,164.46
2023-04-18T05:35:44.274Z,163.28
2023-04-18T05:36:44.273Z,163.21
2023-04-18T05:37:44.371Z,176.81
2023-04-18T05:38:44.385Z,177.08
2023-04-18T05:39:44.397Z,179.57
2023-04-18T05:40:44.431Z,179.02
2023-04-18T05:41:44.442Z,182.67
2023-04-18T05:42:44.484Z,188.76
2023-04-18T05:43:48.396Z,195.72
2023-04-18T05:44:45.487Z,196.33
2023-04-18T05:45:44.480Z,199.23
2023-04-18T05:46:44.461Z,205.86
2023-04-18T05:47:44.497Z,219.02
2023-04-18T05:48:44.445Z,237.28
2023-04-18T05:49:44.428Z,243.73
2023-04-18T05:50:44.407Z,248.31
2023-04-18T05:51:44.416Z,249.68
2023-04-18T05:52:44.418Z,250.00
2023-04-18T05:53:44.441Z,250.00
2023-04-18T05:54:44.541Z,249.34
2023-04-18T05:55:44.562Z,250.00
2023-04-18T05:56:44.651Z,250.00
2023-04-18T05:57:44.703Z,249.67
2023-04-18T05:58:44.735Z,249.59
2023-04-18T05:59:44.827Z,248.79
2023-04-18T06:00:44.850Z,249.30
2023-04-18T06:01:44.896Z,248.79
2023-04-18T06:02:45.103Z,245.26
2023-04-18T06:03:45.312Z,244.97
2023-04-18T06:04:45.473Z,245.16
2023-04-18T06:05:45.348Z,245.18
2023-04-18T06:06:45.197Z,245.40
2023-04-18T06:07:45.233Z,242.78
2023-04-18T06:08:45.248Z,242.29
2023-04-18T06:09:45.275Z,242.03
2023-04-18T06:10:45.305Z,238.94
2023-04-18T06:11:45.367Z,238.12
2023-04-18T06:12:45.324Z,236.78
2023-04-18T06:13:45.313Z,237.03
2023-04-18T06:14:45.308Z,237.42
2023-04-18T06:15:45.438Z,235.90
2023-04-18T06:16:45.327Z,236.88
2023-04-18T06:17:45.378Z,233.71
2023-04-18T06:18:45.390Z,232.38
2023-04-18T06:19:45.342Z,230.09
2023-04-18T06:20:45.410Z,229.05
2023-04-18T06:21:45.350Z,226.70
2023-04-18T06:22:45.403Z,226.03
2023-04-18T06:23:45.390Z,225.95
2023-04-18T06:24:45.399Z,224.25
2023-04-18T06:25:45.407Z,223.19
2023-04-18T06:26:45.398Z,222.55
2023-04-18T06:27:45.438Z,221.49
2023-04-18T06:28:45.434Z,221.50
2023-04-18T06:29:45.408Z,218.44
2023-04-18T06:30:45.462Z,217.75
2023-04-18T06:31:45.549Z,215.12
2023-04-18T06:32:45.488Z,216.22
2023-04-18T06:33:45.488Z,217.97
2023-04-18T06:34:45.458Z,216.80
2023-04-18T06:35:45.511Z,217.53
2023-04-18T06:36:45.484Z,217.82
2023-04-18T06:37:45.510Z,217.80
2023-04-18T06:38:45.513Z,215.95
2023-04-18T06:39:45.540Z,218.47
2023-04-18T06:40:45.580Z,216.48
2023-04-18T06:41:45.533Z,217.59
2023-04-18T06:42:45.543Z,216.09
2023-04-18T06:43:59.680Z,217.47
2023-04-18T06:44:46.611Z,217.48
2023-04-18T06:45:45.672Z,215.71
2023-04-18T06:46:45.543Z,215.52
2023-04-18T06:47:45.588Z,214.84
2023-04-18T06:48:45.660Z,213.00
2023-04-18T06:49:45.574Z,212.18
2023-04-18T06:50:45.524Z,212.92
2023-04-18T06:51:45.526Z,212.88
2023-04-18T06:52:45.510Z,214.07
2023-04-18T06:53:45.489Z,213.18
2023-04-18T06:54:45.478Z,214.67
2023-04-18T06:55:45.502Z,213.21
2023-04-18T06:56:45.460Z,211.93
2023-04-18T06:57:45.447Z,212.48
2023-04-18T06:58:45.465Z,211.05
2023-04-18T06:59:45.473Z,211.18
2023-04-18T07:00:45.487Z,211.55
2023-04-18T07:01:45.429Z,212.10
2023-04-18T07:02:45.597Z,212.34
2023-04-18T07:03:45.541Z,212.12
2023-04-18T07:04:45.582Z,210.26
2023-04-18T07:05:45.691Z,211.34
2023-04-18T07:06:45.411Z,211.52
2023-04-18T07:07:45.374Z,211.61
2023-04-18T07:08:45.380Z,213.78
2023-04-18T07:09:45.396Z,211.46
2023-04-18T07:10:45.398Z,211.26
2023-04-18T07:11:45.374Z,208.33
2023-04-18T07:12:45.360Z,208.73
2023-04-18T07:13:45.366Z,209.08
2023-04-18T07:14:45.351Z,212.52
2023-04-18T07:15:45.361Z,211.93
2023-04-18T07:16:45.342Z,213.38
2023-04-18T07:17:45.343Z,212.62
2023-04-18T07:18:45.335Z,212.14
2023-04-18T07:19:45.312Z,211.01
2023-04-18T07:20:45.339Z,211.03
2023-04-18T07:21:45.340Z,210.20
2023-04-18T07:22:45.333Z,209.79
2023-04-18T07:23:45.305Z,208.39
2023-04-18T07:24:45.285Z,206.16
2023-04-18T07:25:45.263Z,208.69
2023-04-18T07:26:45.287Z,207.77
2023-04-18T07:27:45.251Z,208.82
2023-04-18T07:28:45.250Z,210.65
2023-04-18T07:29:45.257Z,209.78
2023-04-18T07:30:45.288Z,209.55
2023-04-18T07:31:45.219Z,209.68
2023-04-18T07:32:45.233Z,209.94
2023-04-18T07:33:45.369Z,209.96
2023-04-18T07:34:45.331Z,209.91
2023-04-18T07:35:45.353Z,211.29
2023-04-18T07:36:45.408Z,211.55
2023-04-18T07:37:45.458Z,210.09
2023-04-18T07:38:45.503Z,208.31
2023-04-18T07:39:45.551Z,211.54
2023-04-18T07:40:45.716Z,210.55
2023-04-18T07:41:45.688Z,212.29
2023-04-18T07:42:45.708Z,214.24
2023-04-18T07:43:45.789Z,221.34
2023-04-18T07:44:45.858Z,237.50
2023-04-18T07:45:46.223Z,249.36
2023-04-18T07:46:45.924Z,249.31
2023-04-18T07:47:45.930Z,245.48
2023-04-18T07:48:45.904Z,238.54
2023-04-18T07:49:45.927Z,240.78
2023-04-18T07:50:45.953Z,246.71
2023-04-18T07:51:45.950Z,250.37
2023-04-18T07:52:45.980Z,247.81
2023-04-18T07:53:46.002Z,250.27
2023-04-18T07:54:45.995Z,249.51
2023-04-18T07:55:46.060Z,250.00
2023-04-18T07:56:46.141Z,250.00
2023-04-18T07:57:47.527Z,249.37
2023-04-18T07:58:46.209Z,250.00
2023-04-18T07:59:46.264Z,249.94
2023-04-18T08:00:46.323Z,248.65
2023-04-18T08:01:46.332Z,247.51
2023-04-18T08:02:46.529Z,248.66
2023-04-18T08:03:46.479Z,248.84
2023-04-18T08:04:46.629Z,248.81
2023-04-18T08:05:46.506Z,249.58
2023-04-18T08:06:46.531Z,248.33
2023-04-18T08:07:46.545Z,250.00
2023-04-18T08:08:46.611Z,250.07
2023-04-18T08:09:46.608Z,249.26
2023-04-18T08:10:46.620Z,249.97
2023-04-18T08:11:46.621Z,249.28
2023-04-18T08:12:46.637Z,249.71
2023-04-18T08:13:46.636Z,249.97
2023-04-18T08:14:46.690Z,249.66
2023-04-18T08:15:46.720Z,249.87
2023-04-18T08:16:46.762Z,249.78
2023-04-18T08:17:46.736Z,249.67
2023-04-18T08:18:46.798Z,249.95
2023-04-18T08:19:46.738Z,250.00
2023-04-18T08:20:46.776Z,249.72
2023-04-18T08:21:46.745Z,249.47
2023-04-18T08:23:02.272Z,248.79
2023-04-18T08:23:47.789Z,248.93
2023-04-18T08:25:01.383Z,249.21
2023-04-18T08:25:47.800Z,248.98
2023-04-18T08:26:46.773Z,249.54
2023-04-18T08:27:46.733Z,250.70
2023-04-18T08:28:46.859Z,252.40
2023-04-18T08:29:46.718Z,255.03
2023-04-18T08:30:46.749Z,249.34
2023-04-18T08:31:46.765Z,250.00
2023-04-18T08:32:46.865Z,249.98
2023-04-18T08:33:46.730Z,249.69
2023-04-18T08:34:46.730Z,248.54
2023-04-18T08:35:46.727Z,249.44
2023-04-18T08:36:47.200Z,248.94
2023-04-18T08:37:46.735Z,250.00
2023-04-18T08:38:46.802Z,247.38
2023-04-18T08:39:46.836Z,246.98
2023-04-18T08:40:47.024Z,244.60
2023-04-18T08:41:47.211Z,242.53
2023-04-18T08:42:47.051Z,243.12
2023-04-18T08:43:47.090Z,242.65
2023-04-18T08:44:47.250Z,241.11
2023-04-18T08:45:47.144Z,241.26
2023-04-18T08:46:47.228Z,241.26
2023-04-18T08:47:47.182Z,240.93
2023-04-18T08:48:47.125Z,237.31
2023-04-18T08:49:47.157Z,238.28
2023-04-18T08:50:47.143Z,235.67
2023-04-18T08:51:47.217Z,236.00
2023-04-18T08:52:47.144Z,234.79
2023-04-18T08:53:47.126Z,232.83
2023-04-18T08:54:47.142Z,232.03
2023-04-18T08:55:47.124Z,232.17
2023-04-18T08:56:47.176Z,231.07
2023-04-18T08:57:47.191Z,225.67
2023-04-18T08:58:47.200Z,226.18
2023-04-18T08:59:48.926Z,226.66
2023-04-18T09:00:47.193Z,225.05
2023-04-18T09:01:47.227Z,216.78
2023-04-18T09:02:47.445Z,216.15
2023-04-18T09:03:47.188Z,215.63
2023-04-18T09:04:47.187Z,215.86
2023-04-18T09:05:47.160Z,214.88
2023-04-18T09:06:47.180Z,213.73
2023-04-18T09:07:47.138Z,213.64
2023-04-18T09:08:47.142Z,212.77
2023-04-18T09:09:47.128Z,213.13
2023-04-18T09:10:47.131Z,211.05
2023-04-18T09:11:47.134Z,210.80
2023-04-18T09:12:47.410Z,210.80
2023-04-18T09:13:47.112Z,209.81
2023-04-18T09:14:47.152Z,210.85
2023-04-18T09:15:47.109Z,211.38
2023-04-18T09:16:47.200Z,210.48
2023-04-18T09:17:47.159Z,206.25
2023-04-18T09:18:47.106Z,208.13
2023-04-18T09:19:47.083Z,207.76
2023-04-18T09:20:47.057Z,209.11
2023-04-18T09:21:47.078Z,208.17
2023-04-18T09:22:47.058Z,206.56
2023-04-18T09:23:47.057Z,205.48
2023-04-18T09:24:47.046Z,205.49
2023-04-18T09:25:47.083Z,204.96
2023-04-18T09:26:47.223Z,204.59
2023-04-18T09:27:47.057Z,203.77
2023-04-18T09:28:47.011Z,204.15
2023-04-18T09:29:47.205Z,203.45
2023-04-18T09:30:47.012Z,204.65
2023-04-18T09:31:47.236Z,205.25
2023-04-18T09:32:47.052Z,206.43
2023-04-18T09:33:46.979Z,206.71
2023-04-18T09:34:46.985Z,207.68
2023-04-18T09:35:47.025Z,207.65
2023-04-18T09:36:47.278Z,209.43
2023-04-18T09:37:46.971Z,209.73
2023-04-18T09:38:46.949Z,208.50
2023-04-18T09:39:46.914Z,210.03
2023-04-18T09:40:46.972Z,210.78
2023-04-18T09:41:47.237Z,211.96
2023-04-18T09:42:46.932Z,214.49
2023-04-18T09:43:46.901Z,217.05
2023-04-18T09:44:46.926Z,216.86
2023-04-18T09:45:46.936Z,205.48
2023-04-18T09:46:47.666Z,210.98
2023-04-18T09:47:46.929Z,197.34
2023-04-18T09:48:46.890Z,202.79
2023-04-18T09:49:46.865Z,205.73
2023-04-18T09:50:46.910Z,208.04
2023-04-18T09:51:47.278Z,214.57
2023-04-18T09:52:46.883Z,218.77
2023-04-18T09:53:46.885Z,228.39
2023-04-18T09:54:48.216Z,233.85
2023-04-18T09:55:46.813Z,235.07
2023-04-18T09:56:46.830Z,232.19
2023-04-18T09:57:46.829Z,238.32
2023-04-18T09:58:46.835Z,241.52
2023-04-18T09:59:46.812Z,247.22
2023-04-18T10:00:47.034Z,244.82
2023-04-18T10:01:46.865Z,249.10
2023-04-18T10:02:46.834Z,246.68
2023-04-18T10:03:46.898Z,247.36
2023-04-18T10:04:46.884Z,248.89
2023-04-18T10:05:46.869Z,250.00
2023-04-18T10:06:46.798Z,248.62
2023-04-18T10:07:46.762Z,247.66
2023-04-18T10:08:46.766Z,250.00
2023-04-18T10:09:46.745Z,245.95
2023-04-18T10:10:46.779Z,247.84
2023-04-18T10:11:46.736Z,244.58
2023-04-18T10:12:46.749Z,246.45
2023-04-18T10:13:46.752Z,250.00
2023-04-18T10:14:46.815Z,248.99
2023-04-18T10:15:46.839Z,245.90
2023-04-18T10:16:48.456Z,246.70
2023-04-18T10:18:00.630Z,246.95
2023-04-18T10:18:47.860Z,247.06
2023-04-18T10:19:46.865Z,247.57
2023-04-18T10:20:46.858Z,249.53
2023-04-18T10:21:46.842Z,255.80
2023-04-18T10:22:46.849Z,261.08
2023-04-18T10:23:46.830Z,249.58
2023-04-18T10:24:46.815Z,248.40
2023-04-18T10:25:46.809Z,253.05
2023-04-18T10:26:46.818Z,253.79
2023-04-18T10:27:46.799Z,250.62
2023-04-18T10:28:46.801Z,250.00
2023-04-18T10:29:46.779Z,245.77
2023-04-18T10:30:46.786Z,241.73
2023-04-18T10:31:46.851Z,240.99
2023-04-18T10:32:47.037Z,241.42
2023-04-18T10:33:52.780Z,235.87
2023-04-18T10:34:47.763Z,235.88
2023-04-18T10:35:46.747Z,235.21
2023-04-18T10:36:47.313Z,232.94
2023-04-18T10:37:46.769Z,230.17
2023-04-18T10:38:46.715Z,225.57
2023-04-18T10:39:46.722Z,224.88
2023-04-18T10:40:46.730Z,224.73
2023-04-18T10:41:47.916Z,222.68
2023-04-18T10:42:46.710Z,220.37
2023-04-18T10:43:46.695Z,213.36
2023-04-18T10:44:46.709Z,217.62
2023-04-18T10:45:46.697Z,215.01
2023-04-18T10:46:46.700Z,214.49
2023-04-18T10:47:46.881Z,214.12
2023-04-18T10:48:46.815Z,212.54
2023-04-18T10:49:46.651Z,212.09
2023-04-18T10:50:46.693Z,211.79
2023-04-18T10:51:46.713Z,213.51
2023-04-18T10:52:46.670Z,215.75
2023-04-18T10:53:46.673Z,217.25
2023-04-18T10:54:46.672Z,216.03
2023-04-18T10:55:46.658Z,216.95
2023-04-18T10:56:46.660Z,215.17
2023-04-18T10:57:46.668Z,212.31
2023-04-18T10:58:46.600Z,210.24
2023-04-18T10:59:46.603Z,208.40
2023-04-18T11:00:46.677Z,207.43
2023-04-18T11:01:46.678Z,204.84
2023-04-18T11:02:46.849Z,203.65
2023-04-18T11:03:46.780Z,200.66
2023-04-18T11:04:46.711Z,197.07
2023-04-18T11:05:46.716Z,197.02
2023-04-18T11:06:46.764Z,193.13
2023-04-18T11:07:46.746Z,194.46
2023-04-18T11:08:46.783Z,194.73
2023-04-18T11:09:46.830Z,171.47
2023-04-18T11:10:46.821Z,171.02
2023-04-18T11:11:46.874Z,179.69
2023-04-18T11:12:46.907Z,179.53
2023-04-18T11:13:46.964Z,176.35
2023-04-18T11:14:46.954Z,173.82
2023-04-18T11:15:46.997Z,168.76
2023-04-18T11:16:47.117Z,167.50
2023-04-18T11:17:47.093Z,164.48
2023-04-18T11:18:47.092Z,162.74
2023-04-18T11:19:47.130Z,162.58
2023-04-18T11:20:47.191Z,163.40
2023-04-18T11:21:47.271Z,165.37
2023-04-18T11:22:47.228Z,165.75
2023-04-18T11:23:47.276Z,162.76
2023-04-18T11:24:47.300Z,162.19
2023-04-18T11:25:48.273Z,159.08
2023-04-18T11:26:47.373Z,155.83
2023-04-18T11:27:47.425Z,157.63
2023-04-18T11:28:47.445Z,157.07
2023-04-18T11:29:47.474Z,156.68
2023-04-18T11:30:47.551Z,155.87
2023-04-18T11:31:47.841Z,152.02
2023-04-18T11:32:47.610Z,147.71
2023-04-18T11:33:47.608Z,152.39
2023-04-18T11:34:47.652Z,157.63
2023-04-18T11:35:47.710Z,158.49
2023-04-18T11:36:47.746Z,153.55
2023-04-18T11:37:47.763Z,149.88
2023-04-18T11:38:47.794Z,148.04
2023-04-18T11:39:47.838Z,126.39
2023-04-18T11:40:47.934Z,135.95
2023-04-18T11:41:47.937Z,145.66
2023-04-18T11:42:47.939Z,144.29
2023-04-18T11:43:47.972Z,141.47
2023-04-18T11:44:48.006Z,146.06
2023-04-18T11:45:48.035Z,143.91
2023-04-18T11:46:48.085Z,139.77
2023-04-18T11:47:48.158Z,145.49
2023-04-18T11:48:48.112Z,140.65
2023-04-18T11:49:48.150Z,140.44
2023-04-18T11:50:48.180Z,143.01
2023-04-18T11:51:48.184Z,143.29
2023-04-18T11:52:48.333Z,146.24
2023-04-18T11:53:48.238Z,148.33
2023-04-18T11:54:48.246Z,152.91
2023-04-18T11:55:48.270Z,154.52
2023-04-18T11:56:48.313Z,155.75
2023-04-18T11:57:48.307Z,154.83
2023-04-18T11:58:48.348Z,155.91
2023-04-18T11:59:48.347Z,160.83
2023-04-18T12:00:48.353Z,162.47
2023-04-18T12:01:48.392Z,163.67
2023-04-18T12:02:48.515Z,166.08
2023-04-18T12:03:48.555Z,169.55
2023-04-18T12:04:48.526Z,170.49
2023-04-18T12:05:48.666Z,170.92
2023-04-18T12:06:48.455Z,172.27
2023-04-18T12:07:48.508Z,171.98
2023-04-18T12:08:48.563Z,172.09
2023-04-18T12:09:48.440Z,171.84
2023-04-18T12:10:48.428Z,173.34
2023-04-18T12:11:48.423Z,173.75
2023-04-18T12:12:48.434Z,169.83
2023-04-18T12:13:48.462Z,169.72
2023-04-18T12:14:48.421Z,170.61
2023-04-18T12:15:48.440Z,171.14
2023-04-18T12:16:48.440Z,170.83
2023-04-18T12:17:48.510Z,172.71
2023-04-18T12:18:48.450Z,165.36
2023-04-18T12:19:49.829Z,167.38
2023-04-18T12:20:48.414Z,168.70
2023-04-18T12:21:48.442Z,172.04
2023-04-18T12:22:48.469Z,173.12
2023-04-18T12:23:48.461Z,172.63
2023-04-18T12:24:48.528Z,171.22
2023-04-18T12:25:48.466Z,168.63
2023-04-18T12:26:48.770Z,154.92
2023-04-18T12:27:48.487Z,148.07
2023-04-18T12:28:48.474Z,161.00
2023-04-18T12:29:48.477Z,157.62
2023-04-18T12:30:48.484Z,152.47
2023-04-18T12:31:48.577Z,154.26
2023-04-18T12:32:48.541Z,155.23
2023-04-18T12:33:48.501Z,153.97
2023-04-18T12:34:48.511Z,150.93
2023-04-18T12:35:49.717Z,153.97
2023-04-18T12:36:48.529Z,154.58
2023-04-18T12:37:48.531Z,153.99